createdAt,value
2019-02-23T00:04:20.729Z,29.87
2019-02-23T00:14:23.225Z,27.47
2019-02-23T00:24:24.753Z,28.23
2019-02-23T00:34:26.220Z,34.40
2019-02-23T00:44:27.645Z,29.70
2019-02-23T00:54:29.089Z,35.10
2019-02-23T01:04:30.516Z,41.40
2019-02-23T01:14:33.028Z,34.83
2019-02-23T01:24:34.763Z,36.43
2019-02-23T01:34:36.061Z,32.17
2019-02-23T01:44:37.476Z,42.30
2019-02-23T01:54:38.956Z,41.63
2019-02-23T02:04:41.622Z,35.97
2019-02-23T02:14:44.100Z,38.47
2019-02-23T02:24:45.604Z,35.40
2019-02-23T02:34:47.360Z,30.73
2019-02-23T02:44:48.776Z,34.17
2019-02-23T02:54:50.220Z,30.27
2019-02-23T03:04:51.649Z,19.93
2019-02-23T03:14:54.441Z,27.20
2019-02-23T03:24:55.985Z,29.23
2019-02-23T03:34:57.442Z,26.27
2019-02-23T03:44:58.876Z,29.70
2019-02-23T03:55:00.387Z,27.97
2019-02-23T04:05:01.730Z,28.93
2019-02-23T04:15:06.344Z,27.70
2019-02-23T04:25:08.080Z,32.50
2019-02-23T04:35:09.544Z,26.30
2019-02-23T04:45:11.061Z,36.43
2019-02-23T04:55:12.541Z,32.53
2019-02-23T05:05:13.956Z,28.23
2019-02-23T05:15:16.461Z,24.43
2019-02-23T05:25:17.947Z,27.27
2019-02-23T05:35:19.336Z,27.53
2019-02-23T05:45:20.764Z,29.00
2019-02-23T05:55:22.196Z,33.53
2019-02-23T06:05:23.612Z,37.87
2019-02-23T06:15:26.721Z,51.40
2019-02-23T06:25:28.236Z,51.30
2019-02-23T06:35:29.620Z,71.00
2019-02-23T06:45:31.033Z,47.37
2019-02-23T06:55:32.441Z,51.10
2019-02-23T07:05:33.917Z,56.60
2019-02-23T07:15:36.312Z,42.77
2019-02-23T07:25:37.848Z,46.13
2019-02-23T07:35:39.232Z,42.13
2019-02-23T07:45:40.636Z,45.83
2019-02-23T07:55:42.137Z,57.53
2019-02-23T08:05:43.671Z,36.03
2019-02-23T08:15:46.300Z,25.80
2019-02-23T08:25:47.834Z,32.60
2019-02-23T08:35:49.299Z,30.03
2019-02-23T08:45:50.697Z,29.53
2019-02-23T08:55:52.185Z,93.23
2019-02-23T09:05:53.617Z,140.57
2019-02-23T09:15:56.126Z,31.10
2019-02-23T09:25:57.920Z,26.97
2019-02-23T09:35:59.631Z,25.87
2019-02-23T09:46:01.044Z,34.80
2019-02-23T09:56:02.369Z,27.00
2019-02-23T10:06:03.792Z,39.27
2019-02-23T10:16:06.202Z,30.97
2019-02-23T10:26:07.812Z,28.03
2019-02-23T10:36:09.288Z,23.90
2019-02-23T10:46:10.572Z,23.47
2019-02-23T10:56:12.029Z,28.57
2019-02-23T11:06:13.703Z,31.20
2019-02-23T11:16:16.144Z,30.27
2019-02-23T11:26:17.988Z,30.50
2019-02-23T11:36:19.376Z,19.00
2019-02-23T11:46:20.902Z,20.90
2019-02-23T11:56:22.384Z,19.23
2019-02-23T12:06:24.094Z,26.90
2019-02-23T12:16:27.605Z,19.87
2019-02-23T12:26:29.116Z,21.40
2019-02-23T12:36:30.893Z,26.77
2019-02-23T12:46:32.308Z,64.43
2019-02-23T12:56:33.800Z,26.37
2019-02-23T13:06:35.216Z,19.83
2019-02-23T13:16:37.955Z,24.23
2019-02-23T13:26:52.045Z,36.50
2019-02-23T13:37:14.138Z,20.33
2019-02-23T13:47:21.395Z,22.23
2019-02-23T13:57:29.813Z,72.10
2019-02-23T14:07:40.622Z,34.60
2019-02-23T14:18:14.524Z,32.43
2019-02-23T14:28:22.762Z,34.03
2019-02-23T14:38:45.964Z,31.03
2019-02-23T14:49:17.058Z,27.37
2019-02-23T14:59:40.475Z,30.30
2019-02-23T15:10:00.659Z,27.37
2019-02-23T15:20:29.320Z,26.10
2019-02-23T15:30:40.568Z,32.60
2019-02-23T15:41:04.314Z,17.13
2019-02-23T15:51:05.727Z,29.23
2019-02-23T16:01:07.076Z,26.67
2019-02-23T16:11:08.603Z,464.87
2019-02-23T16:21:11.972Z,85.03
2019-02-23T16:31:13.466Z,76.17
2019-02-23T16:41:14.872Z,52.80
2019-02-23T16:51:17.309Z,46.50
2019-02-23T17:01:18.790Z,45.50
2019-02-23T17:11:20.177Z,49.00
2019-02-23T17:21:22.644Z,40.80
2019-02-23T17:31:24.225Z,60.07
2019-02-23T17:41:25.609Z,54.53
2019-02-23T17:51:27.048Z,92.47
2019-02-23T18:01:28.567Z,225.80
2019-02-23T18:11:29.992Z,106.40
2019-02-23T18:21:32.428Z,86.07
2019-02-23T18:31:34.109Z,88.60
2019-02-23T18:41:35.673Z,135.07
2019-02-23T18:51:37.123Z,133.60
2019-02-23T19:01:38.714Z,153.03
2019-02-23T19:11:40.100Z,188.83
2019-02-23T19:21:42.609Z,888.27
2019-02-23T19:31:44.263Z,188.70
2019-02-23T19:41:45.824Z,263.60
2019-02-23T19:51:47.356Z,225.23
2019-02-23T20:01:48.865Z,191.90
2019-02-23T20:11:50.378Z,251.83
2019-02-23T20:21:52.856Z,257.10
2019-02-23T20:31:54.453Z,246.57
2019-02-23T20:41:55.948Z,288.40
2019-02-23T20:51:57.389Z,240.77
2019-02-23T21:01:58.796Z,258.00
2019-02-23T21:12:00.233Z,245.17
2019-02-23T21:22:02.641Z,266.63
2019-02-23T21:32:04.234Z,346.37
2019-02-23T21:42:06.047Z,330.67
2019-02-23T21:52:07.460Z,367.57
2019-02-23T22:02:08.936Z,384.70
2019-02-23T22:12:10.394Z,362.13
2019-02-23T22:22:12.941Z,282.03
2019-02-23T22:32:14.438Z,293.57
2019-02-23T22:42:15.836Z,275.63
2019-02-23T22:52:17.256Z,215.20
2019-02-23T23:02:18.945Z,224.60
2019-02-23T23:12:20.620Z,152.70
2019-02-23T23:22:23.084Z,162.33
2019-02-23T23:32:24.622Z,200.80
2019-02-23T23:42:26.004Z,278.73
2019-02-23T23:52:27.433Z,244.37
